createdAt,value
2019-01-31T00:00:18.645Z,37.9
2019-01-31T00:02:19.287Z,33.7
2019-01-31T00:04:18.926Z,35.2
2019-01-31T00:06:19.208Z,47.7
2019-01-31T00:08:18.830Z,27.7
2019-01-31T00:10:19.050Z,40.1
2019-01-31T00:12:18.766Z,34
2019-01-31T00:14:19.403Z,26
2019-01-31T00:16:19.128Z,29.8
2019-01-31T00:18:18.845Z,34
2019-01-31T00:20:19.474Z,33.3
2019-01-31T00:22:19.117Z,30.2
2019-01-31T00:24:18.768Z,27.6
2019-01-31T00:26:19.082Z,35.2
2019-01-31T00:28:18.668Z,24.6
2019-01-31T00:30:19.323Z,29.7
2019-01-31T00:32:18.942Z,45.1
2019-01-31T00:34:18.572Z,31.7
2019-01-31T00:36:19.335Z,33.4
2019-01-31T00:38:18.955Z,25.9
2019-01-31T00:40:19.031Z,31.7
2019-01-31T00:42:18.659Z,26.9
2019-01-31T00:44:19.284Z,30.5
2019-01-31T00:46:19.553Z,33.4
2019-01-31T00:48:19.169Z,35.2
2019-01-31T00:50:18.789Z,38.8
2019-01-31T00:52:19.429Z,38.2
2019-01-31T00:54:19.047Z,35.8
2019-01-31T00:56:19.008Z,33.8
2019-01-31T00:58:18.648Z,29.3
2019-01-31T01:00:19.273Z,32.6
2019-01-31T01:02:18.741Z,42.3
2019-01-31T01:04:19.355Z,33.2
2019-01-31T01:06:18.680Z,25.3
2019-01-31T01:08:19.292Z,41.3
2019-01-31T01:10:19.406Z,32.1
2019-01-31T01:12:19.004Z,31.8
2019-01-31T01:14:18.619Z,27.5
2019-01-31T01:16:18.955Z,32
2019-01-31T01:18:18.655Z,34.8
2019-01-31T01:20:19.301Z,34.1
2019-01-31T01:22:19.032Z,31.3
2019-01-31T01:24:18.651Z,33.1
2019-01-31T01:26:18.910Z,26.4
2019-01-31T01:28:19.522Z,31.6
2019-01-31T01:30:19.141Z,34.3
2019-01-31T01:32:18.775Z,28.9
2019-01-31T01:34:19.370Z,31.7
2019-01-31T01:36:18.711Z,29.1
2019-01-31T01:38:19.344Z,34.6
2019-01-31T01:40:19.416Z,22.3
2019-01-31T01:42:19.053Z,27.6
2019-01-31T01:44:18.707Z,34.5
2019-01-31T01:46:19.082Z,26.5
2019-01-31T01:48:18.789Z,24
2019-01-31T01:50:19.422Z,26.6
2019-01-31T01:52:19.071Z,30.3
2019-01-31T01:54:18.768Z,23.6
2019-01-31T01:56:18.695Z,28.5
2019-01-31T01:58:19.346Z,31.5
2019-01-31T02:00:19.015Z,33.2
2019-01-31T02:02:19.055Z,29
2019-01-31T02:04:18.682Z,30.1
2019-01-31T02:06:18.892Z,28.2
2019-01-31T02:08:19.520Z,32.5
2019-01-31T02:10:18.612Z,25.7
2019-01-31T02:12:19.253Z,25.7
2019-01-31T02:14:18.859Z,27.9
2019-01-31T02:16:18.678Z,28.6
2019-01-31T02:18:19.412Z,34.1
2019-01-31T02:20:19.069Z,33.6
2019-01-31T02:22:18.681Z,26.6
2019-01-31T02:24:19.320Z,27.7
2019-01-31T02:26:19.088Z,28.5
2019-01-31T02:28:18.712Z,26.9
2019-01-31T02:30:19.366Z,27.4
2019-01-31T02:32:18.959Z,28.9
2019-01-31T02:34:18.557Z,32.3
2019-01-31T02:36:19.222Z,26
2019-01-31T02:38:19.028Z,33
2019-01-31T02:40:19.125Z,27.6
2019-01-31T02:42:18.751Z,29
2019-01-31T02:44:19.357Z,32.1
2019-01-31T02:46:19.138Z,26.3
2019-01-31T02:48:18.767Z,24.8
2019-01-31T02:50:19.405Z,27.3
2019-01-31T02:52:19.033Z,24.1
2019-01-31T02:54:18.664Z,30
2019-01-31T02:56:18.989Z,22.1
2019-01-31T02:58:18.637Z,25.5
2019-01-31T03:00:19.308Z,31.5
2019-01-31T03:02:18.926Z,30.3
2019-01-31T03:04:19.561Z,25.4
2019-01-31T03:06:18.817Z,24.9
2019-01-31T03:08:19.447Z,21.9
2019-01-31T03:10:19.787Z,25.8
2019-01-31T03:12:19.440Z,25.4
2019-01-31T03:14:19.082Z,25.7
2019-01-31T03:16:19.348Z,29.7
2019-01-31T03:18:19.058Z,29.4
2019-01-31T03:20:18.682Z,29.5
2019-01-31T03:22:19.306Z,22.8
2019-01-31T03:24:18.933Z,21.9
2019-01-31T03:26:18.628Z,27.5
2019-01-31T03:28:19.288Z,30.2
2019-01-31T03:30:18.941Z,22.7
2019-01-31T03:32:18.779Z,25
2019-01-31T03:34:19.372Z,22.9
2019-01-31T03:36:19.061Z,20.6
2019-01-31T03:38:18.710Z,26.9
2019-01-31T03:40:18.800Z,25.6
2019-01-31T03:42:19.439Z,27.5
2019-01-31T03:44:19.104Z,24
2019-01-31T03:46:19.459Z,21.4
2019-01-31T03:48:19.071Z,25.1
2019-01-31T03:50:18.687Z,27.3
2019-01-31T03:52:19.325Z,26.3
2019-01-31T03:54:18.946Z,20.4
2019-01-31T03:56:19.259Z,25.9
2019-01-31T03:58:18.901Z,36.3
2019-01-31T04:00:19.643Z,26
2019-01-31T04:02:19.292Z,23.7
2019-01-31T04:04:18.932Z,24.5
2019-01-31T04:06:18.842Z,23.9
2019-01-31T04:08:19.484Z,21
2019-01-31T04:10:19.508Z,23
2019-01-31T04:12:19.175Z,21.1
2019-01-31T04:14:18.817Z,26.3
2019-01-31T04:16:18.650Z,21.6
2019-01-31T04:18:19.383Z,25.1
2019-01-31T04:20:19.020Z,26.1
2019-01-31T04:22:19.409Z,21.1
2019-01-31T04:24:19.024Z,26.8
2019-01-31T04:26:19.341Z,24.5
2019-01-31T04:28:18.968Z,27.1
2019-01-31T04:30:18.645Z,26.2
2019-01-31T04:32:19.280Z,25.4
2019-01-31T04:34:18.912Z,21.7
2019-01-31T04:36:18.695Z,24.8
2019-01-31T04:38:20.257Z,19
2019-01-31T04:40:31.791Z,20.7
2019-01-31T04:42:19.509Z,28.6
2019-01-31T04:44:19.159Z,23.5
2019-01-31T04:46:19.455Z,23.7
2019-01-31T04:48:19.076Z,17.6
2019-01-31T04:50:18.720Z,26.5
2019-01-31T04:52:19.341Z,25.7
2019-01-31T04:54:18.993Z,20.6
2019-01-31T04:56:18.816Z,23.1
2019-01-31T04:58:19.454Z,18.1
2019-01-31T05:00:19.117Z,20.1
2019-01-31T05:02:18.746Z,22.1
2019-01-31T05:04:19.378Z,19
2019-01-31T05:06:18.628Z,21.8
2019-01-31T05:08:19.242Z,23.6
2019-01-31T05:10:19.398Z,25
2019-01-31T05:12:19.046Z,24.8
2019-01-31T05:14:18.691Z,20.2
2019-01-31T05:16:19.059Z,22
2019-01-31T05:18:18.779Z,23.6
2019-01-31T05:20:19.401Z,24.9
2019-01-31T05:22:19.330Z,25.1
2019-01-31T05:24:18.963Z,23.9
2019-01-31T05:26:18.896Z,20.4
2019-01-31T05:28:19.505Z,28.2
2019-01-31T05:30:19.207Z,22
2019-01-31T05:32:18.854Z,22.3
2019-01-31T05:34:19.543Z,15.9
2019-01-31T05:36:18.882Z,17.6
2019-01-31T05:38:19.607Z,22.5
2019-01-31T05:40:18.772Z,18.3
2019-01-31T05:42:19.406Z,15.8
2019-01-31T05:44:19.162Z,21.3
2019-01-31T05:46:19.574Z,22.8
2019-01-31T05:48:19.234Z,15.4
2019-01-31T05:50:19.088Z,20.2
2019-01-31T05:52:18.734Z,23.1
2019-01-31T05:54:19.344Z,21
2019-01-31T05:56:18.732Z,25
2019-01-31T05:58:19.390Z,22.6
2019-01-31T06:00:19.085Z,24.3
2019-01-31T06:02:18.734Z,15.6
2019-01-31T06:04:19.397Z,24.6
2019-01-31T06:06:19.135Z,21
2019-01-31T06:08:18.742Z,18.2
2019-01-31T06:10:18.817Z,21.4
2019-01-31T06:12:19.485Z,21.7
2019-01-31T06:14:19.206Z,21.2
2019-01-31T06:16:18.685Z,16
2019-01-31T06:18:19.419Z,20.2
2019-01-31T06:20:19.069Z,17
2019-01-31T06:22:18.806Z,13.4
2019-01-31T06:24:19.423Z,17.1
2019-01-31T06:26:18.769Z,17.9
2019-01-31T06:28:19.412Z,13.3
2019-01-31T06:30:19.071Z,23.5
2019-01-31T06:32:18.700Z,24.5
2019-01-31T06:34:19.312Z,17.8
2019-01-31T06:36:18.617Z,15.1
2019-01-31T06:38:19.263Z,16.7
2019-01-31T06:40:19.361Z,16
2019-01-31T06:42:18.797Z,15.9
2019-01-31T06:44:19.452Z,17.3
2019-01-31T06:46:19.322Z,19.8
2019-01-31T06:48:18.933Z,16.6
2019-01-31T06:50:18.590Z,15.5
2019-01-31T06:52:19.230Z,17.2
2019-01-31T06:54:18.837Z,16.7
2019-01-31T06:56:19.208Z,16.9
2019-01-31T06:58:18.810Z,16.8
2019-01-31T07:00:19.451Z,19.5
2019-01-31T07:02:19.130Z,14.2
2019-01-31T07:04:18.788Z,20
2019-01-31T07:06:19.538Z,18.6
2019-01-31T07:08:19.201Z,13.7
2019-01-31T07:10:19.424Z,15.7
2019-01-31T07:12:19.056Z,25.1
2019-01-31T07:14:18.675Z,16.1
2019-01-31T07:16:19.171Z,16.6
2019-01-31T07:18:18.856Z,28.9
2019-01-31T07:20:19.616Z,26.2
2019-01-31T07:22:19.222Z,40.8
2019-01-31T07:24:18.823Z,31.9
2019-01-31T07:26:19.107Z,38.9
2019-01-31T07:28:18.703Z,40.5
2019-01-31T07:30:19.347Z,50.8
2019-01-31T07:32:18.983Z,52.6
2019-01-31T07:34:18.637Z,57.8
2019-01-31T07:36:19.018Z,61.9
2019-01-31T07:38:18.641Z,63.1
2019-01-31T07:40:18.831Z,63.9
2019-01-31T07:42:19.473Z,51.8
2019-01-31T07:44:19.118Z,31.4
2019-01-31T07:46:19.379Z,37.3
2019-01-31T07:48:19.000Z,35.5
2019-01-31T07:50:18.631Z,30.1
2019-01-31T07:52:19.252Z,28.2
2019-01-31T07:54:18.883Z,28.4
2019-01-31T07:56:18.735Z,25.7
2019-01-31T07:58:20.838Z,25.6
2019-01-31T08:00:19.478Z,19.8
2019-01-31T08:02:19.082Z,16.3
2019-01-31T08:04:18.730Z,14.8
2019-01-31T08:06:19.074Z,19.2
2019-01-31T08:08:18.719Z,21.6
2019-01-31T08:10:18.795Z,13.4
2019-01-31T08:12:19.440Z,17.7
2019-01-31T08:14:19.073Z,15.5
2019-01-31T08:16:19.339Z,10.7
2019-01-31T08:18:19.049Z,11.3
2019-01-31T08:20:18.650Z,17.4
2019-01-31T08:22:19.257Z,29.8
2019-01-31T08:24:18.906Z,10.4
2019-01-31T08:26:18.655Z,18.1
2019-01-31T08:28:19.243Z,10.9
2019-01-31T08:30:18.885Z,9.6
2019-01-31T08:32:19.507Z,18.3
2019-01-31T08:34:19.146Z,18.7
2019-01-31T08:36:19.414Z,17.2
2019-01-31T08:38:19.029Z,6.7
2019-01-31T08:40:19.132Z,7.8
2019-01-31T08:42:18.789Z,11.5
2019-01-31T08:44:19.416Z,11.3
2019-01-31T08:46:19.301Z,16.5
2019-01-31T08:48:18.917Z,12.8
2019-01-31T08:50:19.529Z,12.1
2019-01-31T08:52:19.157Z,13.2
2019-01-31T08:54:18.856Z,12.6
2019-01-31T08:56:19.439Z,11.3
2019-01-31T08:58:19.062Z,9
2019-01-31T09:00:18.699Z,10.2
2019-01-31T09:02:19.324Z,10.7
2019-01-31T09:04:18.954Z,10.6
2019-01-31T09:06:19.198Z,10.1
2019-01-31T09:08:18.933Z,15.6
2019-01-31T09:10:19.094Z,10.7
2019-01-31T09:12:18.735Z,18.6
2019-01-31T09:14:19.371Z,9.9
2019-01-31T09:16:18.734Z,10.9
2019-01-31T09:18:19.442Z,11.4
2019-01-31T09:20:19.170Z,9.6
2019-01-31T09:22:18.786Z,15
2019-01-31T09:24:19.438Z,12.3
2019-01-31T09:26:19.355Z,5.9
2019-01-31T09:28:18.993Z,9.3
2019-01-31T09:30:19.785Z,9.8
2019-01-31T09:32:19.423Z,8.9
2019-01-31T09:34:19.036Z,9.5
2019-01-31T09:36:19.358Z,9.8
2019-01-31T09:38:18.986Z,9.9
2019-01-31T09:40:19.081Z,8.7
2019-01-31T09:42:27.014Z,12.8
2019-01-31T09:44:18.661Z,7.3
2019-01-31T09:46:19.004Z,8.6
2019-01-31T09:48:18.633Z,10.4
2019-01-31T09:50:19.288Z,5.6
2019-01-31T09:52:18.931Z,9.8
2019-01-31T09:54:19.595Z,6.8
2019-01-31T09:56:19.363Z,8
2019-01-31T09:58:18.998Z,8.1
2019-01-31T10:00:27.992Z,5.1
2019-01-31T10:02:18.639Z,3.8
2019-01-31T10:04:19.249Z,6.3
2019-01-31T10:06:19.503Z,7.5
2019-01-31T10:08:19.157Z,7.4
2019-01-31T10:10:19.657Z,8.7
2019-01-31T10:12:19.374Z,8.2
2019-01-31T10:14:19.016Z,9.4
2019-01-31T10:16:18.863Z,9
2019-01-31T10:18:18.586Z,6.7
2019-01-31T10:20:20.758Z,4.4
2019-01-31T10:22:19.608Z,5.2
2019-01-31T10:24:19.438Z,4.1
2019-01-31T10:26:18.727Z,7.9
2019-01-31T10:28:19.376Z,7.2
2019-01-31T10:30:19.023Z,10.8
2019-01-31T10:32:18.679Z,12.4
2019-01-31T10:34:22.081Z,6.8
2019-01-31T10:36:19.249Z,8.7
2019-01-31T10:38:18.893Z,8
2019-01-31T10:40:18.975Z,4.1
2019-01-31T10:42:18.655Z,4.9
2019-01-31T10:44:19.308Z,4.4
2019-01-31T10:46:18.674Z,3.8
2019-01-31T10:48:19.347Z,3.8
2019-01-31T10:50:18.997Z,4.5
2019-01-31T10:52:18.618Z,4.1
2019-01-31T10:54:19.291Z,5.4
2019-01-31T10:56:19.075Z,3.8
2019-01-31T10:58:18.704Z,4.7
2019-01-31T11:00:19.349Z,5.3
2019-01-31T11:02:18.989Z,6.4
2019-01-31T11:04:18.621Z,5.1
2019-01-31T11:06:19.054Z,7.1
2019-01-31T11:08:18.733Z,4
2019-01-31T11:10:18.916Z,3.4
2019-01-31T11:12:19.537Z,3.9
2019-01-31T11:14:19.178Z,6.3
2019-01-31T11:16:19.040Z,3
2019-01-31T11:18:18.766Z,3.5
2019-01-31T11:20:19.435Z,5.2
2019-01-31T11:22:19.106Z,7.1
2019-01-31T11:24:18.743Z,3.5
2019-01-31T11:26:18.694Z,4.8
2019-01-31T11:28:19.357Z,4.6
2019-01-31T11:30:19.015Z,3.5
2019-01-31T11:32:18.612Z,12.2
2019-01-31T11:34:19.247Z,5
2019-01-31T11:36:18.734Z,4.9
2019-01-31T11:38:19.398Z,3.3
2019-01-31T11:40:19.571Z,5.1
2019-01-31T11:42:19.225Z,3.5
2019-01-31T11:44:18.858Z,3
2019-01-31T11:46:19.038Z,4.7
2019-01-31T11:48:18.682Z,2.4
2019-01-31T11:50:19.322Z,2.5
2019-01-31T11:52:18.973Z,16.6
2019-01-31T11:54:18.637Z,2.7
2019-01-31T11:56:19.573Z,7
2019-01-31T11:58:19.216Z,7.8
2019-01-31T12:00:18.857Z,3.8
2019-01-31T12:02:19.504Z,4
2019-01-31T12:04:19.130Z,3.6
2019-01-31T12:06:18.903Z,3.2
2019-01-31T12:08:19.528Z,2.8
2019-01-31T12:10:18.702Z,3.2
2019-01-31T12:12:19.326Z,8
2019-01-31T12:14:18.957Z,2.4
2019-01-31T12:16:19.256Z,4.5
2019-01-31T12:18:18.962Z,7.7
2019-01-31T12:20:18.619Z,5.5
2019-01-31T12:22:19.262Z,8.9
2019-01-31T12:24:18.874Z,6.7
2019-01-31T12:26:19.361Z,2.9
2019-01-31T12:28:19.022Z,2.3
2019-01-31T12:30:18.685Z,6.4
2019-01-31T12:32:19.311Z,4.1
2019-01-31T12:34:18.984Z,2.8
2019-01-31T12:36:18.769Z,6
2019-01-31T12:38:19.392Z,2.9
2019-01-31T12:40:19.529Z,2.1
2019-01-31T12:42:19.162Z,2.1
2019-01-31T12:44:18.785Z,2.3
2019-01-31T12:46:19.042Z,2.2
2019-01-31T12:48:18.667Z,2.9
2019-01-31T12:50:19.347Z,10.5
2019-01-31T12:52:18.982Z,2.9
2019-01-31T12:54:18.601Z,4.4
2019-01-31T12:56:18.783Z,2.2
2019-01-31T12:58:19.400Z,4
2019-01-31T13:00:19.044Z,2.2
2019-01-31T13:02:18.652Z,3.3
2019-01-31T13:04:20.865Z,9.9
2019-01-31T13:06:18.865Z,2.2
2019-01-31T13:08:19.470Z,3.3
2019-01-31T13:10:19.531Z,1.8
2019-01-31T13:12:19.165Z,2.6
2019-01-31T13:14:18.781Z,2.2
2019-01-31T13:16:18.992Z,3.8
2019-01-31T13:18:18.650Z,4.4
2019-01-31T13:20:19.277Z,2.2
2019-01-31T13:22:18.918Z,3.6
2019-01-31T13:24:19.542Z,3.1
2019-01-31T13:26:18.835Z,2.9
2019-01-31T13:28:19.473Z,2.8
2019-01-31T13:30:19.099Z,1.6
2019-01-31T13:32:18.709Z,2.7
2019-01-31T13:34:19.341Z,6.5
2019-01-31T13:36:18.687Z,2
2019-01-31T13:38:19.310Z,2.1
2019-01-31T13:40:19.370Z,2.1
2019-01-31T13:42:18.966Z,2.6
2019-01-31T13:44:18.592Z,3.5
2019-01-31T13:46:19.329Z,4.6
2019-01-31T13:48:18.933Z,2.1
2019-01-31T13:50:19.565Z,5.3
2019-01-31T13:52:19.220Z,4
2019-01-31T13:54:18.853Z,1.3
2019-01-31T13:56:18.589Z,1.2
2019-01-31T13:58:19.214Z,2.1
2019-01-31T14:00:18.848Z,7.2
2019-01-31T14:02:19.462Z,0.8
2019-01-31T14:04:19.074Z,1.4
2019-01-31T14:06:18.926Z,6.5
2019-01-31T14:08:19.533Z,1.6
2019-01-31T14:10:18.605Z,2.4
2019-01-31T14:12:19.203Z,1.9
2019-01-31T14:14:18.827Z,3.7
2019-01-31T14:16:18.582Z,3.2
2019-01-31T14:18:19.255Z,3.3
2019-01-31T14:20:18.922Z,5.4
2019-01-31T14:22:19.527Z,4.7
2019-01-31T14:24:19.126Z,1
2019-01-31T14:26:18.883Z,0.6
2019-01-31T14:28:19.487Z,2
2019-01-31T14:30:21.793Z,1.3
2019-01-31T14:32:19.451Z,0.7
2019-01-31T14:34:19.076Z,1.1
2019-01-31T14:36:18.779Z,5.3
2019-01-31T14:38:19.409Z,1
2019-01-31T14:40:19.474Z,1.2
2019-01-31T14:42:19.076Z,1.3
2019-01-31T14:44:20.943Z,1
2019-01-31T14:46:19.166Z,1.5
2019-01-31T14:48:18.788Z,1.5
2019-01-31T14:50:19.394Z,1.4
2019-01-31T14:52:19.006Z,1.3
2019-01-31T14:54:18.605Z,0.9
2019-01-31T14:56:19.520Z,2.2
2019-01-31T14:58:20.310Z,1.4
2019-01-31T15:00:18.950Z,1.4
2019-01-31T15:02:18.585Z,2.4
2019-01-31T15:04:19.197Z,1.4
2019-01-31T15:06:19.436Z,2.1
2019-01-31T15:08:19.138Z,2.2
2019-01-31T15:10:19.220Z,2.8
2019-01-31T15:12:18.862Z,1
2019-01-31T15:14:19.489Z,2.5
2019-01-31T15:16:18.736Z,1.1
2019-01-31T15:18:19.416Z,3.7
2019-01-31T15:20:19.053Z,1.6
2019-01-31T15:22:18.663Z,2.5
2019-01-31T15:24:19.280Z,1.7
2019-01-31T15:26:18.551Z,7.6
2019-01-31T15:28:19.167Z,1.6
2019-01-31T15:30:18.842Z,1.9
2019-01-31T15:32:19.453Z,3.3
2019-01-31T15:34:19.044Z,1.9
2019-01-31T15:36:18.770Z,1.9
2019-01-31T15:38:19.385Z,4
2019-01-31T15:40:19.439Z,1.9
2019-01-31T15:42:19.067Z,1.8
2019-01-31T15:44:18.813Z,6
2019-01-31T15:46:19.013Z,3.1
2019-01-31T15:48:18.661Z,2.7
2019-01-31T15:50:19.294Z,5.6
2019-01-31T15:52:18.884Z,7.6
2019-01-31T15:54:19.498Z,7.5
2019-01-31T15:56:18.641Z,4.7
2019-01-31T15:58:19.353Z,4.1
2019-01-31T16:00:18.963Z,3.5
2019-01-31T16:02:18.550Z,3.7
2019-01-31T16:04:19.127Z,2.5
2019-01-31T16:06:19.268Z,5.4
2019-01-31T16:08:18.860Z,2.8
2019-01-31T16:10:18.955Z,4.6
2019-01-31T16:12:18.680Z,7
2019-01-31T16:14:19.303Z,18.2
2019-01-31T16:16:20.406Z,2.6
2019-01-31T16:18:19.078Z,5.3
2019-01-31T16:20:18.694Z,2.9
2019-01-31T16:22:19.298Z,2.5
2019-01-31T16:24:18.895Z,2.5
2019-01-31T16:26:19.029Z,4.3
2019-01-31T16:28:18.627Z,6.9
2019-01-31T16:30:19.259Z,3.1
2019-01-31T16:32:18.877Z,6
2019-01-31T16:34:19.477Z,4
2019-01-31T16:36:18.657Z,4.4
2019-01-31T16:38:19.244Z,5.1
2019-01-31T16:40:19.243Z,4.8
2019-01-31T16:42:18.826Z,7.4
2019-01-31T16:44:19.407Z,7.9
2019-01-31T16:46:18.996Z,11
2019-01-31T16:48:18.602Z,6.9
2019-01-31T16:50:19.233Z,3.9
2019-01-31T16:52:18.837Z,6.4
2019-01-31T16:54:19.425Z,10.7
2019-01-31T16:56:18.553Z,8
2019-01-31T16:58:19.161Z,8.1
2019-01-31T17:00:18.773Z,12.6
2019-01-31T17:02:19.371Z,10.1
2019-01-31T17:04:18.960Z,9.7
2019-01-31T17:06:18.615Z,10.3
2019-01-31T17:08:19.189Z,6.8
2019-01-31T17:10:19.219Z,15.5
2019-01-31T17:12:18.792Z,11.2
2019-01-31T17:14:19.381Z,7.1
2019-01-31T17:16:19.505Z,5.7
2019-01-31T17:18:19.152Z,9.7
2019-01-31T17:20:18.755Z,12.7
2019-01-31T17:22:19.351Z,10.7
2019-01-31T17:24:18.933Z,6.2
2019-01-31T17:26:18.612Z,9.4
2019-01-31T17:28:19.209Z,9.9
2019-01-31T17:30:18.818Z,11.1
2019-01-31T17:32:19.375Z,8.3
2019-01-31T17:34:18.971Z,9.1
2019-01-31T17:36:19.097Z,7.2
2019-01-31T17:38:18.666Z,12
2019-01-31T17:40:18.674Z,7.7
2019-01-31T17:42:19.244Z,6.9
2019-01-31T17:44:18.821Z,6.9
2019-01-31T17:46:18.948Z,7
2019-01-31T17:48:18.525Z,8.9
2019-01-31T17:50:19.143Z,6.7
2019-01-31T17:52:18.788Z,9.1
2019-01-31T17:54:19.389Z,7
2019-01-31T17:56:19.111Z,11.5
2019-01-31T17:58:18.682Z,6.6
2019-01-31T18:00:19.297Z,10.7
2019-01-31T18:02:18.880Z,10.4
2019-01-31T18:04:19.461Z,6
2019-01-31T18:06:19.138Z,11
2019-01-31T18:08:18.737Z,10.1
2019-01-31T18:10:18.800Z,10
2019-01-31T18:12:19.386Z,16.7
2019-01-31T18:14:18.963Z,21
2019-01-31T18:16:19.076Z,28.2
2019-01-31T18:18:18.708Z,28.7
2019-01-31T18:20:19.436Z,21.9
2019-01-31T18:22:19.025Z,13.2
2019-01-31T18:24:18.625Z,9.6
2019-01-31T18:26:18.780Z,14.4
2019-01-31T18:28:19.356Z,13.4
2019-01-31T18:30:18.995Z,7.2
2019-01-31T18:32:18.574Z,10.5
2019-01-31T18:34:19.151Z,10.9
2019-01-31T18:36:19.290Z,12.5
2019-01-31T18:38:18.863Z,11.2
2019-01-31T18:40:18.923Z,15.4
2019-01-31T18:42:19.514Z,11.7
2019-01-31T18:44:19.124Z,9.3
2019-01-31T18:46:19.233Z,8.1
2019-01-31T18:48:18.801Z,7.6
2019-01-31T18:50:19.401Z,9.7
2019-01-31T18:52:18.961Z,11.9
2019-01-31T18:54:18.550Z,12.8
2019-01-31T18:56:18.661Z,12.2
2019-01-31T18:58:19.238Z,11.3
2019-01-31T19:00:18.842Z,10.3
2019-01-31T19:02:20.770Z,8.7
2019-01-31T19:04:19.342Z,14.9
2019-01-31T19:06:19.062Z,14.2
2019-01-31T19:08:18.642Z,9.8
2019-01-31T19:10:18.657Z,9.5
2019-01-31T19:12:19.260Z,15.2
2019-01-31T19:14:18.845Z,11.5
2019-01-31T19:16:18.976Z,8.9
2019-01-31T19:18:18.631Z,14.3
2019-01-31T19:20:19.235Z,14.7
2019-01-31T19:22:18.822Z,13.9
2019-01-31T19:24:19.389Z,14.9
2019-01-31T19:26:19.052Z,18.4
2019-01-31T19:28:18.664Z,9.7
2019-01-31T19:30:19.291Z,13.7
2019-01-31T19:32:18.868Z,17.8
2019-01-31T19:34:19.472Z,14.5
2019-01-31T19:36:19.133Z,19.3
2019-01-31T19:38:18.716Z,15.2
2019-01-31T19:40:18.732Z,13.7
2019-01-31T19:42:19.303Z,13.4
2019-01-31T19:44:18.895Z,12.6
2019-01-31T19:46:18.548Z,17.5
2019-01-31T19:48:19.113Z,16
2019-01-31T19:50:18.737Z,20.7
2019-01-31T19:52:19.319Z,15.5
2019-01-31T19:54:18.902Z,18.1
2019-01-31T19:56:19.156Z,18.8
2019-01-31T19:58:18.729Z,15.5
2019-01-31T20:00:19.337Z,21.4
2019-01-31T20:02:18.934Z,20.3
2019-01-31T20:04:19.510Z,21.6
2019-01-31T20:06:19.164Z,17.8
2019-01-31T20:08:18.749Z,21.7
2019-01-31T20:10:18.770Z,22.8
2019-01-31T20:12:19.335Z,28
2019-01-31T20:14:18.925Z,17.7
2019-01-31T20:16:29.492Z,22.1
2019-01-31T20:18:19.211Z,22.8
2019-01-31T20:20:18.813Z,16.5
2019-01-31T20:22:19.384Z,23.4
2019-01-31T20:24:18.964Z,23.8
2019-01-31T20:26:18.634Z,19.5
2019-01-31T20:28:19.225Z,16.3
2019-01-31T20:30:18.828Z,29.8
2019-01-31T20:32:19.426Z,19.1
2019-01-31T20:34:19.011Z,21.7
2019-01-31T20:36:18.781Z,21.3
2019-01-31T20:38:19.348Z,31.5
2019-01-31T20:40:19.347Z,24.7
2019-01-31T20:42:18.940Z,28
2019-01-31T20:44:19.512Z,26.1
2019-01-31T20:46:18.606Z,24.4
2019-01-31T20:48:19.190Z,24.4
2019-01-31T20:50:18.775Z,25.2
2019-01-31T20:52:19.344Z,33.1
2019-01-31T20:54:18.945Z,28.4
2019-01-31T20:56:18.652Z,27.1
2019-01-31T20:58:19.240Z,28.5
2019-01-31T21:00:18.848Z,33.6
2019-01-31T21:02:22.035Z,26
2019-01-31T21:04:18.629Z,28.8
2019-01-31T21:06:18.770Z,26.3
2019-01-31T21:08:19.337Z,36.2
2019-01-31T21:10:19.388Z,30.8
2019-01-31T21:12:18.969Z,28.9
2019-01-31T21:14:18.559Z,28.7
2019-01-31T21:16:19.224Z,32.2
2019-01-31T21:18:18.867Z,34.7
2019-01-31T21:20:19.467Z,30.1
2019-01-31T21:22:19.056Z,28.1
2019-01-31T21:24:18.632Z,30.2
2019-01-31T21:26:19.277Z,31.4
2019-01-31T21:28:18.875Z,38.1
2019-01-31T21:30:19.479Z,33.4
2019-01-31T21:32:19.057Z,28.6
2019-01-31T21:34:18.647Z,36.2
2019-01-31T21:36:18.851Z,27
2019-01-31T21:38:19.433Z,31.8
2019-01-31T21:40:19.529Z,40.8
2019-01-31T21:42:19.144Z,32.9
2019-01-31T21:44:18.718Z,31.9
2019-01-31T21:46:18.688Z,34.6
2019-01-31T21:48:19.263Z,35.4
2019-01-31T21:50:18.874Z,38.9
2019-01-31T21:52:19.452Z,27
2019-01-31T21:54:19.025Z,37.7
2019-01-31T21:56:19.174Z,29.9
2019-01-31T21:58:18.746Z,37.2
2019-01-31T22:00:19.451Z,38.9
2019-01-31T22:02:19.055Z,35.1
2019-01-31T22:04:18.627Z,36.9
2019-01-31T22:06:23.063Z,44.1
2019-01-31T22:08:18.679Z,34
2019-01-31T22:10:18.850Z,35.7
2019-01-31T22:12:19.419Z,36.8
2019-01-31T22:14:19.026Z,38.5
2019-01-31T22:16:18.842Z,38.4
2019-01-31T22:18:19.476Z,34.6
2019-01-31T22:20:19.082Z,27.7
2019-01-31T22:22:18.657Z,32.4
2019-01-31T22:24:19.244Z,35.7
2019-01-31T22:26:19.396Z,38.2
2019-01-31T22:28:18.967Z,38.2
2019-01-31T22:30:18.573Z,48.4
2019-01-31T22:32:19.169Z,35.4
2019-01-31T22:34:18.739Z,37.7
2019-01-31T22:36:18.983Z,38.2
2019-01-31T22:38:18.564Z,38.3
2019-01-31T22:40:18.555Z,47.5
2019-01-31T22:42:19.120Z,42.9
2019-01-31T22:44:18.714Z,40.8
2019-01-31T22:46:21.569Z,45.9
2019-01-31T22:48:19.159Z,47.1
2019-01-31T22:50:18.774Z,44.9
2019-01-31T22:52:19.348Z,50.5
2019-01-31T22:54:18.907Z,34.3
2019-01-31T22:56:18.545Z,42.8
2019-01-31T22:58:19.118Z,43.9
2019-01-31T23:00:18.718Z,48.1
2019-01-31T23:02:19.283Z,55
2019-01-31T23:04:18.857Z,42.6
2019-01-31T23:06:19.506Z,44.7
2019-01-31T23:08:19.065Z,38.3
2019-01-31T23:10:19.092Z,40.9
2019-01-31T23:12:18.684Z,44.9
2019-01-31T23:14:19.251Z,41.3
2019-01-31T23:16:19.360Z,47
2019-01-31T23:18:19.087Z,46.8
2019-01-31T23:20:18.693Z,41.2
2019-01-31T23:22:19.327Z,36.7
2019-01-31T23:24:18.934Z,37
2019-01-31T23:26:18.607Z,36.2
2019-01-31T23:28:19.176Z,43.1
2019-01-31T23:30:18.783Z,41.6
2019-01-31T23:32:19.367Z,35.5
2019-01-31T23:34:18.955Z,34.1
2019-01-31T23:36:18.613Z,36.8
2019-01-31T23:38:19.181Z,44.5
2019-01-31T23:40:19.239Z,42.6
2019-01-31T23:42:18.583Z,45.5
2019-01-31T23:44:19.169Z,42.2
2019-01-31T23:46:19.315Z,39.1
2019-01-31T23:48:18.900Z,43.5
2019-01-31T23:50:19.498Z,46.9
2019-01-31T23:52:19.078Z,45.4
2019-01-31T23:54:18.660Z,37.8
2019-01-31T23:56:19.307Z,33.9
2019-01-31T23:58:18.891Z,40.5
